createdAt,value
2023-05-04T00:03:15.559Z,5.80
2023-05-04T00:07:18.444Z,5.70
2023-05-04T00:11:18.640Z,5.70
2023-05-04T00:15:18.945Z,5.60
2023-05-04T00:19:19.704Z,5.50
2023-05-04T00:23:22.486Z,5.50
2023-05-04T00:27:22.776Z,5.50
2023-05-04T00:31:23.092Z,5.60
2023-05-04T00:35:23.310Z,5.50
2023-05-04T00:39:26.406Z,5.50
2023-05-04T00:43:26.538Z,5.50
2023-05-04T00:47:27.694Z,5.40
2023-05-04T00:51:29.237Z,5.30
2023-05-04T00:55:32.775Z,5.20
2023-05-04T00:59:33.578Z,5.20
2023-05-04T01:03:35.627Z,5.20
2023-05-04T01:07:46.036Z,5.10
2023-05-04T01:12:01.437Z,5.00
2023-05-04T01:16:02.666Z,5.00
2023-05-04T01:20:04.366Z,4.90
2023-05-04T01:24:08.878Z,4.90
2023-05-04T01:28:16.850Z,4.80
2023-05-04T01:32:20.479Z,4.80
2023-05-04T01:36:21.920Z,4.70
2023-05-04T01:40:24.936Z,4.60
2023-05-04T01:44:25.187Z,4.60
2023-05-04T01:48:26.075Z,4.50
2023-05-04T01:52:27.404Z,4.50
2023-05-04T01:56:30.205Z,4.50
2023-05-04T02:00:31.066Z,4.40
2023-05-04T02:04:34.462Z,4.40
2023-05-04T02:08:35.566Z,4.40
2023-05-04T02:12:38.406Z,4.30
2023-05-04T02:16:38.672Z,4.30
2023-05-04T02:20:38.880Z,4.20
2023-05-04T02:24:41.026Z,4.20
2023-05-04T02:28:43.841Z,4.10
2023-05-04T02:32:44.218Z,4.00
2023-05-04T02:36:44.394Z,4.00
2023-05-04T02:40:45.119Z,4.00
2023-05-04T02:44:48.010Z,4.00
2023-05-04T02:48:48.396Z,4.00
2023-05-04T02:52:48.742Z,3.90
2023-05-04T02:56:48.989Z,3.90
2023-05-04T03:00:56.446Z,3.80
2023-05-04T03:04:56.711Z,3.80
2023-05-04T03:08:59.720Z,3.70
2023-05-04T03:13:04.029Z,3.70
2023-05-04T03:17:06.986Z,3.70
2023-05-04T03:21:07.573Z,3.70
2023-05-04T03:25:10.717Z,3.60
2023-05-04T03:29:10.976Z,3.60
2023-05-04T03:33:16.966Z,3.50
2023-05-04T03:37:17.639Z,3.50
2023-05-04T03:41:17.937Z,3.50
2023-05-04T03:45:18.367Z,3.50
2023-05-04T03:49:21.325Z,3.40
2023-05-04T03:53:21.604Z,3.30
2023-05-04T03:57:22.596Z,3.30
2023-05-04T04:01:23.924Z,3.30
2023-05-04T04:05:26.886Z,3.30
2023-05-04T04:09:29.085Z,3.30
2023-05-04T04:13:30.574Z,3.40
2023-05-04T04:17:31.656Z,3.50
2023-05-04T04:21:34.489Z,3.60
2023-05-04T04:25:34.764Z,3.60
2023-05-04T04:29:35.814Z,3.70
2023-05-04T04:33:36.468Z,3.70
2023-05-04T04:37:39.249Z,3.80
2023-05-04T04:41:39.738Z,3.80
2023-05-04T04:45:41.440Z,3.90
2023-05-04T04:49:41.788Z,4.00
2023-05-04T04:53:44.484Z,4.20
2023-05-04T04:57:45.221Z,4.30
2023-05-04T05:01:45.561Z,4.40
2023-05-04T05:05:45.866Z,4.50
2023-05-04T05:09:48.758Z,4.60
2023-05-04T05:13:49.278Z,4.80
2023-05-04T05:17:49.598Z,5.00
2023-05-04T05:21:49.964Z,5.10
2023-05-04T05:25:53.457Z,5.30
2023-05-04T05:29:54.581Z,5.50
2023-05-04T05:33:55.976Z,5.70
2023-05-04T05:37:56.172Z,5.90
2023-05-04T05:42:02.085Z,6.10
2023-05-04T05:46:02.297Z,6.30
2023-05-04T05:50:02.834Z,6.50
2023-05-04T05:54:03.186Z,6.70
2023-05-04T05:58:06.097Z,7.10
2023-05-04T06:02:06.673Z,7.30
2023-05-04T06:06:07.206Z,7.50
2023-05-04T06:10:09.043Z,7.70
2023-05-04T06:14:12.248Z,7.90
2023-05-04T06:18:12.514Z,8.20
2023-05-04T06:22:12.736Z,8.40
2023-05-04T06:26:13.547Z,8.50
2023-05-04T06:30:18.800Z,8.70
2023-05-04T06:34:19.939Z,8.90
2023-05-04T06:38:20.202Z,9.00
2023-05-04T06:42:20.409Z,9.20
2023-05-04T06:46:25.561Z,9.40
2023-05-04T06:50:27.030Z,9.90
2023-05-04T06:54:27.759Z,10.00
2023-05-04T06:58:28.061Z,10.20
2023-05-04T07:02:30.989Z,10.30
2023-05-04T07:06:32.371Z,10.50
2023-05-04T07:10:32.955Z,10.60
2023-05-04T07:14:33.295Z,10.70
2023-05-04T07:18:36.290Z,10.80
2023-05-04T07:22:37.544Z,10.80
2023-05-04T07:26:37.729Z,11.00
2023-05-04T07:30:37.943Z,11.20
2023-05-04T07:34:45.529Z,11.40
2023-05-04T07:38:47.732Z,11.60
2023-05-04T07:42:47.968Z,11.90
2023-05-04T07:46:48.612Z,12.10
2023-05-04T07:50:51.562Z,12.00
2023-05-04T07:54:55.447Z,12.20
2023-05-04T07:58:56.296Z,12.60
2023-05-04T08:02:57.065Z,13.20
2023-05-04T08:06:59.905Z,14.00
2023-05-04T08:11:15.821Z,14.90
2023-05-04T08:15:17.175Z,15.40
2023-05-04T08:19:17.455Z,16.10
2023-05-04T08:23:20.232Z,16.40
2023-05-04T08:27:20.421Z,17.00
2023-05-04T08:31:21.627Z,17.20
2023-05-04T08:35:23.955Z,17.30
2023-05-04T08:39:27.059Z,17.00
2023-05-04T08:43:27.495Z,17.20
2023-05-04T08:47:29.311Z,17.40
2023-05-04T08:51:30.262Z,18.20
2023-05-04T08:55:36.440Z,17.80
2023-05-04T08:59:37.567Z,18.30
2023-05-04T09:03:38.556Z,19.00
2023-05-04T09:07:39.036Z,18.90
2023-05-04T09:11:41.927Z,18.70
2023-05-04T09:15:42.552Z,19.40
2023-05-04T09:19:44.324Z,19.50
2023-05-04T09:23:52.647Z,19.70
2023-05-04T09:27:58.731Z,20.60
2023-05-04T09:31:58.999Z,21.10
2023-05-04T09:35:59.821Z,20.80
2023-05-04T09:40:02.581Z,21.00
2023-05-04T09:44:05.968Z,21.60
2023-05-04T09:48:17.916Z,21.70
2023-05-04T09:52:18.581Z,22.10
2023-05-04T09:56:35.500Z,21.90
2023-05-04T10:00:39.691Z,22.30
2023-05-04T10:04:40.588Z,22.60
2023-05-04T10:08:41.588Z,22.90
2023-05-04T10:12:43.122Z,23.50
2023-05-04T10:17:00.049Z,24.00
2023-05-04T10:21:26.193Z,23.70
2023-05-04T10:26:06.160Z,22.40
2023-05-04T10:30:07.901Z,21.80
2023-05-04T10:34:12.573Z,21.80
2023-05-04T10:38:14.863Z,21.90
2023-05-04T10:42:15.088Z,22.10
2023-05-04T10:46:22.942Z,22.30
2023-05-04T10:50:25.850Z,22.90
2023-05-04T10:54:26.097Z,23.10
2023-05-04T10:58:32.459Z,23.10
2023-05-04T11:02:34.175Z,23.60
2023-05-04T11:06:38.583Z,24.20
2023-05-04T11:10:39.610Z,24.80
2023-05-04T11:14:43.413Z,26.20
2023-05-04T11:18:46.290Z,25.60
2023-05-04T11:22:50.469Z,25.50
2023-05-04T11:26:52.157Z,26.50
2023-05-04T11:30:53.729Z,27.00
2023-05-04T11:34:55.262Z,26.10
2023-05-04T11:38:59.871Z,26.00
2023-05-04T11:43:02.557Z,25.90
2023-05-04T11:47:03.449Z,25.80
2023-05-04T11:51:05.747Z,26.30
2023-05-04T11:55:11.694Z,26.70
2023-05-04T11:59:12.428Z,27.30
2023-05-04T12:03:16.461Z,28.20
2023-05-04T12:07:16.833Z,27.90
2023-05-04T12:11:25.688Z,27.00
2023-05-04T12:15:37.808Z,26.30
2023-05-04T12:19:37.947Z,25.30
2023-05-04T12:23:38.461Z,25.30
2023-05-04T12:27:44.747Z,26.90
2023-05-04T12:31:45.123Z,27.40
2023-05-04T12:35:45.452Z,28.30
2023-05-04T12:39:45.735Z,28.30
2023-05-04T12:43:49.655Z,27.60
2023-05-04T12:47:49.759Z,27.50
2023-05-04T12:51:50.570Z,27.10
2023-05-04T12:55:50.994Z,27.40
2023-05-04T12:59:53.876Z,26.50
2023-05-04T13:03:54.128Z,26.50
2023-05-04T13:07:56.307Z,26.60
2023-05-04T13:11:56.644Z,26.80
2023-05-04T13:16:00.104Z,26.80
2023-05-04T13:20:00.394Z,27.10
2023-05-04T13:24:00.612Z,26.50
2023-05-04T13:28:00.928Z,26.10
2023-05-04T13:32:04.212Z,26.00
2023-05-04T13:36:04.748Z,26.00
2023-05-04T13:40:04.996Z,25.70
2023-05-04T13:44:05.278Z,25.60
2023-05-04T13:48:08.386Z,26.30
2023-05-04T13:52:09.448Z,26.80
2023-05-04T13:56:10.045Z,27.10
2023-05-04T14:00:13.137Z,27.00
2023-05-04T14:04:16.681Z,26.90
2023-05-04T14:08:17.303Z,26.30
2023-05-04T14:12:19.816Z,26.60
2023-05-04T14:16:20.389Z,26.50
2023-05-04T14:20:23.551Z,26.80
2023-05-04T14:24:23.902Z,26.70
2023-05-04T14:28:24.105Z,26.80
2023-05-04T14:32:24.554Z,27.60
2023-05-04T14:36:27.384Z,27.20
2023-05-04T14:40:28.100Z,27.40
2023-05-04T14:44:30.071Z,26.70
2023-05-04T14:48:30.822Z,26.30
2023-05-04T14:52:34.228Z,26.20
2023-05-04T14:56:34.426Z,25.90
2023-05-04T15:00:34.717Z,25.00
2023-05-04T15:04:35.224Z,25.40
2023-05-04T15:08:38.023Z,25.80
2023-05-04T15:12:39.727Z,25.60
2023-05-04T15:16:39.999Z,26.00
2023-05-04T15:20:41.194Z,25.90
2023-05-04T15:24:44.151Z,25.90
2023-05-04T15:28:44.868Z,26.00
2023-05-04T15:32:45.479Z,26.30
2023-05-04T15:36:46.217Z,26.00
2023-05-04T15:40:49.034Z,26.10
2023-05-04T15:44:49.393Z,25.40
2023-05-04T15:48:50.882Z,24.90
2023-05-04T15:52:51.159Z,25.00
2023-05-04T15:56:54.353Z,25.80
2023-05-04T16:00:54.763Z,26.70
2023-05-04T16:04:55.421Z,27.00
2023-05-04T16:08:55.689Z,26.90
2023-05-04T16:13:04.176Z,26.80
2023-05-04T16:17:04.974Z,26.60
2023-05-04T16:21:05.308Z,26.50
2023-05-04T16:25:05.488Z,26.50
2023-05-04T16:29:08.371Z,26.50
2023-05-04T16:33:08.704Z,25.60
2023-05-04T16:37:10.886Z,25.40
2023-05-04T16:41:11.610Z,25.80
2023-05-04T16:45:16.372Z,25.50
2023-05-04T16:49:16.936Z,25.40
2023-05-04T16:53:17.214Z,24.70
2023-05-04T16:57:17.471Z,24.30
2023-05-04T17:01:20.811Z,24.10
2023-05-04T17:05:21.718Z,23.70
2023-05-04T17:09:22.002Z,23.30
2023-05-04T17:13:22.321Z,22.70
2023-05-04T17:17:26.295Z,22.30
2023-05-04T17:21:26.526Z,22.00
2023-05-04T17:25:27.564Z,21.90
2023-05-04T17:29:27.911Z,21.80
2023-05-04T17:33:30.840Z,21.60
2023-05-04T17:37:31.320Z,21.20
2023-05-04T17:41:31.668Z,21.00
2023-05-04T17:45:32.057Z,20.80
2023-05-04T17:49:35.052Z,20.40
2023-05-04T17:53:35.563Z,20.20
2023-05-04T17:57:35.943Z,19.90
2023-05-04T18:01:36.267Z,19.70
2023-05-04T18:05:39.284Z,19.40
2023-05-04T18:09:39.526Z,19.10
2023-05-04T18:13:39.894Z,18.80
2023-05-04T18:17:40.774Z,18.60
2023-05-04T18:21:43.734Z,18.30
2023-05-04T18:25:44.501Z,18.00
2023-05-04T18:29:46.036Z,17.80
2023-05-04T18:33:46.586Z,17.50
2023-05-04T18:37:49.800Z,17.30
2023-05-04T18:41:50.524Z,16.90
2023-05-04T18:45:50.948Z,16.70
2023-05-04T18:49:54.706Z,16.40
2023-05-04T18:53:57.932Z,16.20
2023-05-04T18:57:58.528Z,16.10
2023-05-04T19:01:58.864Z,15.90
2023-05-04T19:05:59.621Z,15.80
2023-05-04T19:10:06.634Z,15.60
2023-05-04T19:14:08.811Z,15.50
2023-05-04T19:22:41.779Z,15.30
2023-05-04T19:26:44.818Z,15.20
2023-05-04T19:30:46.360Z,15.10
2023-05-04T19:34:46.774Z,15.10
2023-05-04T19:38:50.103Z,15.00
2023-05-04T19:42:53.417Z,15.00
2023-05-04T19:46:53.837Z,14.90
2023-05-04T19:50:54.299Z,14.80
2023-05-04T19:54:57.386Z,14.70
2023-05-04T19:59:02.812Z,14.60
2023-05-04T20:03:03.478Z,14.50
2023-05-04T20:07:04.334Z,14.50
2023-05-04T20:11:06.250Z,14.40
2023-05-04T20:15:10.147Z,14.40
2023-05-04T20:19:12.262Z,14.30
2023-05-04T20:23:15.331Z,14.30
2023-05-04T20:27:15.894Z,14.10
2023-05-04T20:31:56.182Z,14.00
2023-05-04T20:35:54.429Z,13.80
2023-05-04T20:40:12.362Z,13.80
2023-05-04T20:44:15.410Z,13.70
2023-05-04T20:48:18.324Z,13.60
2023-05-04T20:52:18.603Z,13.40
2023-05-04T20:56:19.034Z,13.30
2023-05-04T21:00:20.278Z,13.10
2023-05-04T21:04:23.073Z,13.00
2023-05-04T21:08:23.234Z,12.80
2023-05-04T21:12:23.650Z,12.70
2023-05-04T21:16:25.176Z,12.60
2023-05-04T21:20:28.282Z,12.40
2023-05-04T21:24:28.563Z,12.30
2023-05-04T21:28:28.905Z,12.20
2023-05-04T21:32:29.254Z,12.10
2023-05-04T21:36:32.300Z,12.10
2023-05-04T21:40:32.532Z,12.00
2023-05-04T21:44:32.763Z,11.90
2023-05-04T21:48:33.779Z,11.80
2023-05-04T21:52:36.614Z,11.70
2023-05-04T21:56:36.820Z,11.60
2023-05-04T22:00:36.959Z,11.50
2023-05-04T22:04:37.393Z,11.40
2023-05-04T22:08:40.354Z,11.30
2023-05-04T22:12:41.140Z,11.20
2023-05-04T22:16:41.516Z,11.20
2023-05-04T22:20:42.581Z,11.10
2023-05-04T22:24:45.726Z,11.00
2023-05-04T22:28:46.538Z,10.90
2023-05-04T22:32:47.291Z,10.80
2023-05-04T22:36:47.576Z,10.70
2023-05-04T22:40:50.429Z,10.60
2023-05-04T22:44:50.786Z,10.60
2023-05-04T22:48:51.816Z,10.50
2023-05-04T22:52:52.132Z,10.50
2023-05-04T22:56:55.902Z,10.50
2023-05-04T23:00:56.048Z,10.40
2023-05-04T23:04:57.224Z,10.30
2023-05-04T23:08:57.448Z,10.10
2023-05-04T23:13:00.222Z,10.00
2023-05-04T23:17:00.375Z,9.90
2023-05-04T23:21:00.602Z,9.80
2023-05-04T23:25:00.926Z,9.80
2023-05-04T23:29:03.775Z,9.60
2023-05-04T23:33:03.978Z,9.60
2023-05-04T23:37:04.279Z,9.50
2023-05-04T23:41:06.202Z,9.40
2023-05-04T23:45:10.726Z,9.40
2023-05-04T23:49:10.889Z,9.40
2023-05-04T23:53:10.993Z,9.30
2023-05-04T23:57:11.612Z,9.30
